Rosebloom, Mississippi
Current Conditions -  °F | °C
As of 4:35 PM on Friday 19 Dec 2014 (Local Time) from KGNF Reporting Station
Light Rain Light Rain  
Wind Chill: 43°   Ceiling: 7000
Heat Index: 43°   Visibility: 10mi
Dew Point: 41°   Wind: 0mph
Humidity: 93%   Direction: NA
Pressure: 30.17"   Gusts: NA
Location:  33.8947°N, 90.0323°W
Report Text: KGNF 192235Z AUTO 00000KT 10SM -RA SCT028 SCT034 OVC070 06/05 A3017 RMK AO2 P0001
Loading
Personal Weather Stations






























Interactive Weather Map New forecast layout! Learn more

10-Day Weather Forecast

Advertisements
Track Severe Weather on mobile